createdAt,value
2022-08-16T00:03:13.651Z,22.39
2022-08-16T00:06:21.229Z,22.34
2022-08-16T00:09:27.584Z,22.33
2022-08-16T00:12:34.713Z,22.29
2022-08-16T00:15:51.986Z,22.27
2022-08-16T00:19:01.141Z,22.23
2022-08-16T00:22:12.983Z,22.20
2022-08-16T00:26:33.438Z,22.18
2022-08-16T00:28:49.541Z,22.15
2022-08-16T00:32:05.934Z,22.11
2022-08-16T00:35:16.306Z,22.05
2022-08-16T00:38:40.514Z,22.02
2022-08-16T00:41:50.005Z,21.98
2022-08-16T00:45:00.590Z,21.96
2022-08-16T00:48:30.308Z,21.94
2022-08-16T00:51:38.677Z,21.92
2022-08-16T00:54:44.906Z,21.90
2022-08-16T00:58:00.145Z,21.87
2022-08-16T01:01:08.828Z,21.84
2022-08-16T01:04:29.341Z,21.80
2022-08-16T01:07:50.713Z,21.76
2022-08-16T01:11:00.077Z,21.73
2022-08-16T01:14:13.610Z,21.70
2022-08-16T01:17:21.069Z,21.67
2022-08-16T01:20:35.018Z,21.65
2022-08-16T01:23:57.990Z,21.61
2022-08-16T01:27:15.021Z,21.59
2022-08-16T01:30:26.344Z,21.57
2022-08-16T01:33:33.256Z,21.53
2022-08-16T01:36:39.895Z,21.49
2022-08-16T01:39:47.320Z,21.47
2022-08-16T01:42:55.332Z,21.45
2022-08-16T01:46:37.748Z,21.41
2022-08-16T01:50:40.599Z,21.38
2022-08-16T01:52:59.075Z,21.36
2022-08-16T01:56:07.111Z,21.34
2022-08-16T01:59:16.965Z,21.34
2022-08-16T02:02:27.503Z,21.32
2022-08-16T02:05:34.981Z,21.30
2022-08-16T02:08:41.072Z,21.27
2022-08-16T02:11:52.903Z,21.27
2022-08-16T02:15:00.196Z,21.26
2022-08-16T02:18:08.427Z,21.24
2022-08-16T02:21:31.264Z,21.22
2022-08-16T02:24:41.118Z,21.20
2022-08-16T02:27:51.102Z,21.18
2022-08-16T02:31:00.003Z,21.16
2022-08-16T02:34:08.217Z,21.12
2022-08-16T02:37:20.865Z,21.11
2022-08-16T02:40:28.417Z,21.11
2022-08-16T02:43:37.786Z,21.10
2022-08-16T02:46:49.725Z,21.08
2022-08-16T02:50:52.290Z,21.06
2022-08-16T02:53:23.813Z,21.01
2022-08-16T02:56:32.048Z,20.95
2022-08-16T02:59:41.498Z,20.91
2022-08-16T03:02:48.137Z,20.87
2022-08-16T03:06:02.466Z,20.84
2022-08-16T03:09:29.905Z,20.81
2022-08-16T03:12:55.493Z,20.78
2022-08-16T03:16:02.859Z,20.76
2022-08-16T03:19:09.572Z,20.74
2022-08-16T03:22:18.912Z,20.73
2022-08-16T03:25:41.189Z,20.72
2022-08-16T03:28:51.099Z,20.72
2022-08-16T03:31:58.979Z,20.72
2022-08-16T03:35:06.538Z,20.71
2022-08-16T03:38:34.565Z,20.71
2022-08-16T03:41:50.550Z,20.70
2022-08-16T03:45:03.800Z,20.70
2022-08-16T03:48:15.151Z,20.70
2022-08-16T03:51:25.893Z,20.68
2022-08-16T03:54:31.909Z,20.66
2022-08-16T03:57:42.162Z,20.66
2022-08-16T04:00:59.407Z,20.64
2022-08-16T04:04:06.107Z,20.65
2022-08-16T04:07:15.071Z,20.65
2022-08-16T04:10:35.855Z,20.66
2022-08-16T04:14:00.625Z,20.68
2022-08-16T04:17:09.777Z,20.67
2022-08-16T04:20:29.527Z,20.65
2022-08-16T04:23:40.026Z,20.64
2022-08-16T04:26:46.769Z,20.63
2022-08-16T04:29:53.105Z,20.63
2022-08-16T04:33:09.945Z,20.64
2022-08-16T04:36:20.166Z,20.65
2022-08-16T04:39:46.242Z,20.67
2022-08-16T04:42:54.789Z,20.71
2022-08-16T04:46:03.191Z,20.76
2022-08-16T04:49:09.896Z,20.81
2022-08-16T04:52:32.852Z,20.85
2022-08-16T04:55:41.671Z,20.90
2022-08-16T04:58:48.222Z,20.95
2022-08-16T05:01:58.767Z,21.01
2022-08-16T05:05:06.405Z,21.10
2022-08-16T05:08:29.720Z,21.19
2022-08-16T05:11:36.764Z,21.29
2022-08-16T05:14:46.509Z,21.39
2022-08-16T05:18:07.755Z,21.51
2022-08-16T05:21:23.388Z,21.63
2022-08-16T05:24:29.632Z,21.73
2022-08-16T05:27:43.031Z,21.83
2022-08-16T05:30:51.390Z,21.95
2022-08-16T05:33:57.650Z,22.10
2022-08-16T05:37:04.558Z,22.30
2022-08-16T05:40:14.375Z,22.54
2022-08-16T05:43:21.518Z,22.80
2022-08-16T05:46:30.226Z,23.05
2022-08-16T05:49:39.619Z,23.28
2022-08-16T05:52:46.524Z,23.49
2022-08-16T05:55:53.214Z,23.61
2022-08-16T05:58:59.800Z,23.71
2022-08-16T06:02:06.408Z,23.80
2022-08-16T06:05:14.558Z,23.91
2022-08-16T06:08:31.496Z,24.03
2022-08-16T06:11:39.038Z,24.11
2022-08-16T06:14:49.633Z,24.21
2022-08-16T06:17:59.022Z,24.33
2022-08-16T06:21:06.747Z,24.42
2022-08-16T06:24:52.778Z,24.46
2022-08-16T06:27:41.994Z,24.55
2022-08-16T06:31:03.999Z,24.62
2022-08-16T06:34:55.778Z,24.68
2022-08-16T06:37:37.802Z,24.75
2022-08-16T06:40:47.931Z,24.80
2022-08-16T06:43:56.611Z,24.88
2022-08-16T06:47:03.061Z,24.96
2022-08-16T06:50:10.939Z,25.01
2022-08-16T06:53:29.662Z,25.09
2022-08-16T06:56:36.428Z,25.21
2022-08-16T06:59:52.496Z,25.35
2022-08-16T07:03:04.263Z,25.51
2022-08-16T07:06:31.547Z,25.69
2022-08-16T07:09:37.975Z,25.80
2022-08-16T07:12:47.392Z,25.96
2022-08-16T07:16:15.444Z,26.15
2022-08-16T07:19:21.694Z,26.34
2022-08-16T07:22:52.660Z,26.57
2022-08-16T07:26:05.948Z,26.80
2022-08-16T07:29:12.151Z,27.09
2022-08-16T07:32:20.980Z,27.43
2022-08-16T07:35:36.321Z,27.81
2022-08-16T07:38:43.551Z,28.13
2022-08-16T07:41:51.562Z,28.37
2022-08-16T07:44:59.475Z,28.21
2022-08-16T07:48:11.821Z,28.08
2022-08-16T07:51:18.966Z,28.08
2022-08-16T07:54:32.347Z,28.17
2022-08-16T07:58:00.958Z,28.28
2022-08-16T08:01:12.674Z,28.33
2022-08-16T08:04:21.696Z,28.40
2022-08-16T08:07:29.329Z,28.51
2022-08-16T08:10:38.954Z,28.57
2022-08-16T08:13:45.124Z,28.61
2022-08-16T08:16:51.994Z,28.68
2022-08-16T08:19:59.339Z,28.77
2022-08-16T08:23:06.027Z,28.82
2022-08-16T08:26:17.392Z,28.81
2022-08-16T08:29:36.877Z,28.80
2022-08-16T08:32:58.489Z,28.80
2022-08-16T08:36:11.698Z,28.85
2022-08-16T08:39:28.082Z,28.91
2022-08-16T08:42:34.354Z,28.95
2022-08-16T08:45:47.202Z,28.96
2022-08-16T08:48:59.686Z,28.96
2022-08-16T08:52:09.553Z,28.96
2022-08-16T08:55:17.038Z,28.96
2022-08-16T08:58:23.137Z,28.96
2022-08-16T09:01:36.513Z,28.95
2022-08-16T09:04:43.355Z,28.88
2022-08-16T09:08:01.037Z,28.88
2022-08-16T09:11:08.195Z,28.87
2022-08-16T09:14:24.219Z,28.88
2022-08-16T09:17:49.060Z,28.94
2022-08-16T09:21:01.791Z,28.92
2022-08-16T09:24:09.818Z,28.95
2022-08-16T09:27:16.295Z,29.00
2022-08-16T09:30:34.728Z,28.99
2022-08-16T09:33:52.041Z,28.96
2022-08-16T09:37:00.301Z,28.95
2022-08-16T09:40:31.681Z,29.01
2022-08-16T09:43:59.703Z,29.10
2022-08-16T09:47:03.514Z,29.21
2022-08-16T09:50:22.921Z,29.31
2022-08-16T09:53:30.313Z,29.42
2022-08-16T09:56:39.137Z,29.49
2022-08-16T09:59:45.381Z,29.57
2022-08-16T10:02:52.811Z,29.66
2022-08-16T10:05:59.019Z,29.75
2022-08-16T10:09:06.790Z,29.86
2022-08-16T10:12:32.381Z,29.96
2022-08-16T10:15:41.745Z,30.08
2022-08-16T10:19:00.748Z,30.19
2022-08-16T10:22:12.807Z,30.28
2022-08-16T10:27:19.484Z,30.38
2022-08-16T10:28:45.736Z,30.50
2022-08-16T10:31:56.536Z,30.62
2022-08-16T10:35:03.883Z,30.71
2022-08-16T10:38:10.094Z,30.73
2022-08-16T10:41:33.853Z,30.70
2022-08-16T10:44:40.027Z,30.71
2022-08-16T10:48:00.484Z,30.77
2022-08-16T10:51:10.399Z,30.86
2022-08-16T10:54:29.097Z,30.91
2022-08-16T10:57:36.404Z,31.01
2022-08-16T11:00:46.314Z,31.14
2022-08-16T11:03:54.505Z,31.25
2022-08-16T11:07:08.684Z,31.38
2022-08-16T11:14:10.761Z,31.49
2022-08-16T11:17:18.494Z,31.54
2022-08-16T11:20:48.954Z,31.57
2022-08-16T11:23:58.190Z,31.56
2022-08-16T11:27:23.314Z,31.48
2022-08-16T11:30:39.378Z,31.38
2022-08-16T11:33:53.253Z,31.27
2022-08-16T11:37:00.993Z,31.23
2022-08-16T11:40:09.925Z,31.26
2022-08-16T11:43:20.358Z,31.30
2022-08-16T11:46:45.345Z,31.31
2022-08-16T11:49:53.140Z,31.30
2022-08-16T11:52:59.297Z,31.23
2022-08-16T11:56:09.291Z,31.22
2022-08-16T11:59:16.017Z,31.34
2022-08-16T12:02:31.589Z,31.52
2022-08-16T12:05:40.517Z,31.65
2022-08-16T12:08:48.982Z,31.76
2022-08-16T12:11:55.412Z,31.89
2022-08-16T12:15:01.964Z,31.96
2022-08-16T12:18:09.529Z,32.01
2022-08-16T12:21:15.741Z,32.01
2022-08-16T12:24:26.311Z,32.02
2022-08-16T12:27:33.214Z,32.00
2022-08-16T12:30:43.809Z,31.96
2022-08-16T12:33:50.767Z,31.87
2022-08-16T12:37:05.674Z,31.80
2022-08-16T12:40:23.917Z,31.81
2022-08-16T12:43:31.486Z,31.84
2022-08-16T12:46:37.717Z,31.83
2022-08-16T12:49:45.246Z,31.71
2022-08-16T12:52:53.443Z,31.59
2022-08-16T12:55:59.797Z,31.49
2022-08-16T12:59:16.838Z,31.42
2022-08-16T13:02:33.444Z,31.36
2022-08-16T13:05:47.751Z,31.32
2022-08-16T13:09:02.575Z,31.33
2022-08-16T13:12:21.094Z,31.35
2022-08-16T13:15:30.197Z,31.40
2022-08-16T13:18:38.422Z,31.48
2022-08-16T13:21:45.155Z,31.55
2022-08-16T13:24:56.630Z,31.67
2022-08-16T13:28:06.340Z,31.77
2022-08-16T13:31:12.470Z,31.84
2022-08-16T13:34:22.147Z,31.81
2022-08-16T13:37:28.314Z,31.83
2022-08-16T13:40:34.659Z,31.86
2022-08-16T13:43:42.022Z,31.83
2022-08-16T13:46:48.778Z,31.77
2022-08-16T13:49:57.167Z,31.74
2022-08-16T13:53:04.289Z,31.77
2022-08-16T13:56:11.591Z,31.80
2022-08-16T13:59:31.153Z,31.82
2022-08-16T14:02:41.081Z,31.84
2022-08-16T14:05:47.344Z,31.83
2022-08-16T14:09:06.670Z,31.85
2022-08-16T14:12:22.208Z,31.88
2022-08-16T14:15:28.704Z,31.83
2022-08-16T14:18:38.178Z,31.70
2022-08-16T14:22:13.444Z,31.58
2022-08-16T14:25:18.627Z,31.46
2022-08-16T14:28:25.786Z,31.35
2022-08-16T14:31:35.012Z,31.22
2022-08-16T14:34:45.479Z,31.13
2022-08-16T14:37:57.025Z,31.05
2022-08-16T14:41:03.576Z,30.95
2022-08-16T14:44:13.156Z,30.78
2022-08-16T14:47:20.759Z,30.53
2022-08-16T14:50:28.738Z,30.12
2022-08-16T14:53:35.029Z,29.69
2022-08-16T14:56:46.651Z,29.30
2022-08-16T15:00:05.784Z,28.78
2022-08-16T15:03:12.973Z,28.29
2022-08-16T15:06:20.515Z,27.96
2022-08-16T15:09:26.998Z,27.67
2022-08-16T15:12:36.346Z,27.41
2022-08-16T15:15:44.193Z,27.17
2022-08-16T15:18:58.923Z,27.01
2022-08-16T15:22:05.430Z,26.97
2022-08-16T15:25:14.556Z,27.35
2022-08-16T15:28:30.678Z,27.78
2022-08-16T15:31:41.554Z,28.15
2022-08-16T15:34:50.334Z,28.30
2022-08-16T15:37:56.752Z,28.05
2022-08-16T15:41:03.572Z,27.82
2022-08-16T15:44:13.336Z,27.76
2022-08-16T15:47:19.779Z,28.15
2022-08-16T15:50:25.950Z,28.53
2022-08-16T15:53:32.453Z,28.77
2022-08-16T15:56:51.649Z,28.94
2022-08-16T16:00:04.597Z,29.08
2022-08-16T16:03:15.047Z,29.22
2022-08-16T16:06:21.465Z,29.32
2022-08-16T16:09:37.138Z,29.39
2022-08-16T16:12:51.127Z,29.43
2022-08-16T16:16:03.256Z,29.43
2022-08-16T16:19:09.645Z,29.47
2022-08-16T16:22:17.537Z,29.53
2022-08-16T16:25:24.619Z,29.59
2022-08-16T16:29:06.290Z,29.62
2022-08-16T16:32:00.188Z,29.66
2022-08-16T16:35:07.406Z,29.68
2022-08-16T16:38:14.295Z,29.72
2022-08-16T16:41:25.158Z,29.72
2022-08-16T16:44:36.316Z,29.73
2022-08-16T16:47:44.913Z,29.73
2022-08-16T16:50:51.741Z,29.72
2022-08-16T16:54:00.393Z,29.70
2022-08-16T16:57:26.802Z,29.67
2022-08-16T17:00:38.585Z,29.62
2022-08-16T17:03:45.029Z,29.59
2022-08-16T17:07:00.093Z,29.58
2022-08-16T17:10:06.967Z,29.58
2022-08-16T17:13:14.779Z,29.58
2022-08-16T17:16:21.988Z,29.46
2022-08-16T17:19:41.313Z,28.98
2022-08-16T17:22:54.566Z,28.56
2022-08-16T17:26:01.032Z,28.45
2022-08-16T17:29:11.650Z,28.66
2022-08-16T17:32:33.780Z,28.81
2022-08-16T17:35:55.714Z,28.86
2022-08-16T17:39:02.219Z,28.87
2022-08-16T17:42:15.939Z,28.86
2022-08-16T17:45:22.763Z,28.85
2022-08-16T17:48:31.191Z,28.82
2022-08-16T17:51:37.345Z,28.77
2022-08-16T17:54:45.328Z,28.72
2022-08-16T17:57:52.379Z,28.68
2022-08-16T18:01:01.831Z,28.65
2022-08-16T18:04:10.015Z,28.60
2022-08-16T18:07:16.372Z,28.55
2022-08-16T18:10:32.875Z,28.48
2022-08-16T18:13:43.453Z,28.39
2022-08-16T18:16:49.666Z,28.31
2022-08-16T18:19:55.704Z,28.23
2022-08-16T18:23:12.387Z,28.15
2022-08-16T18:26:21.572Z,28.05
2022-08-16T18:29:27.656Z,27.98
2022-08-16T18:32:34.454Z,27.93
2022-08-16T18:35:40.775Z,27.87
2022-08-16T18:38:46.818Z,27.79
2022-08-16T18:41:52.934Z,27.71
2022-08-16T18:44:59.098Z,27.65
2022-08-16T18:48:05.778Z,27.60
2022-08-16T18:51:18.241Z,27.55
2022-08-16T18:54:28.306Z,27.47
2022-08-16T18:57:34.378Z,27.39
2022-08-16T19:00:56.817Z,27.32
2022-08-16T19:04:03.299Z,27.26
2022-08-16T19:07:09.475Z,27.22
2022-08-16T19:10:15.583Z,27.16
2022-08-16T19:13:24.329Z,27.10
2022-08-16T19:16:30.575Z,27.05
2022-08-16T19:19:36.696Z,27.02
2022-08-16T19:26:24.446Z,26.91
2022-08-16T19:29:32.424Z,26.86
2022-08-16T19:32:39.422Z,26.81
2022-08-16T19:35:45.913Z,26.76
2022-08-16T19:38:52.066Z,26.71
2022-08-16T19:42:00.197Z,26.66
2022-08-16T19:45:08.164Z,26.63
2022-08-16T19:48:14.327Z,26.58
2022-08-16T19:51:20.616Z,26.53
2022-08-16T19:54:26.870Z,26.48
2022-08-16T19:57:33.423Z,26.41
2022-08-16T20:00:43.304Z,26.35
2022-08-16T20:03:49.788Z,26.30
2022-08-16T20:06:56.379Z,26.23
2022-08-16T20:10:03.245Z,26.16
2022-08-16T20:13:14.884Z,26.08
2022-08-16T20:16:20.959Z,26.03
2022-08-16T20:19:28.233Z,25.99
2022-08-16T20:22:52.865Z,25.97
2022-08-16T20:26:01.015Z,25.93
2022-08-16T20:29:07.335Z,25.89
2022-08-16T20:32:16.343Z,25.84
2022-08-16T20:35:25.779Z,25.79
2022-08-16T20:38:31.954Z,25.75
2022-08-16T20:41:38.158Z,25.71
2022-08-16T20:44:45.139Z,25.63
2022-08-16T20:47:51.361Z,25.56
2022-08-16T20:50:59.975Z,25.51
2022-08-16T20:54:06.324Z,25.47
2022-08-16T20:57:13.186Z,25.43
2022-08-16T21:00:20.412Z,25.41
2022-08-16T21:03:26.786Z,25.38
2022-08-16T21:06:32.920Z,25.34
2022-08-16T21:09:39.547Z,25.31
2022-08-16T21:12:53.152Z,25.27
2022-08-16T21:16:00.115Z,25.22
2022-08-16T21:19:06.348Z,25.20
2022-08-16T21:22:20.617Z,25.14
2022-08-16T21:25:27.311Z,25.09
2022-08-16T21:28:41.688Z,25.06
2022-08-16T21:31:49.407Z,25.02
2022-08-16T21:34:55.578Z,24.99
2022-08-16T21:38:28.856Z,24.96
2022-08-16T21:41:28.096Z,24.94
2022-08-16T21:44:38.504Z,24.92
2022-08-16T21:47:45.743Z,24.89
2022-08-16T21:50:51.831Z,24.87
2022-08-16T21:53:58.096Z,24.85
2022-08-16T21:57:10.185Z,24.82
2022-08-16T22:00:19.337Z,24.75
2022-08-16T22:03:25.932Z,24.69
2022-08-16T22:06:32.151Z,24.63
2022-08-16T22:09:38.219Z,24.60
2022-08-16T22:12:44.414Z,24.54
2022-08-16T22:15:51.888Z,24.48
2022-08-16T22:18:58.096Z,24.42
2022-08-16T22:22:04.810Z,24.37
2022-08-16T22:25:11.889Z,24.32
2022-08-16T22:28:18.965Z,24.26
2022-08-16T22:31:25.486Z,24.21
2022-08-16T22:34:31.775Z,24.19
2022-08-16T22:37:37.896Z,24.16
2022-08-16T22:40:44.790Z,24.14
2022-08-16T22:43:50.918Z,24.11
2022-08-16T22:46:57.415Z,24.07
2022-08-16T22:50:03.544Z,24.02
2022-08-16T22:53:10.493Z,23.98
2022-08-16T22:56:17.760Z,23.95
2022-08-16T22:59:25.050Z,23.92
2022-08-16T23:02:31.228Z,23.88
2022-08-16T23:05:40.071Z,23.83
2022-08-16T23:08:46.891Z,23.76
2022-08-16T23:11:53.436Z,23.70
2022-08-16T23:15:02.939Z,23.65
2022-08-16T23:18:10.490Z,23.63
2022-08-16T23:21:19.305Z,23.61
2022-08-16T23:24:25.475Z,23.58
2022-08-16T23:27:31.653Z,23.55
2022-08-16T23:30:40.686Z,23.52
2022-08-16T23:33:47.008Z,23.52
2022-08-16T23:36:53.320Z,23.50
2022-08-16T23:39:59.563Z,23.49
2022-08-16T23:43:07.817Z,23.48
2022-08-16T23:46:17.014Z,23.47
2022-08-16T23:49:56.713Z,23.44
2022-08-16T23:53:05.439Z,23.39
2022-08-16T23:56:14.142Z,23.35
2022-08-16T23:59:20.198Z,23.31
